sensor_id;sensor_type;location;lat;lon;timestamp;P1;durP1;ratioP1;P2;durP2;ratioP2
24567;SDS011;12731;52.182;8.716;2023-04-24T00:01:04;1.08;;;0.95;;
24567;SDS011;12731;52.182;8.716;2023-04-24T00:03:33;2.53;;;0.82;;
24567;SDS011;12731;52.182;8.716;2023-04-24T00:06:01;0.98;;;0.80;;
24567;SDS011;12731;52.182;8.716;2023-04-24T00:08:28;0.55;;;0.55;;
24567;SDS011;12731;52.182;8.716;2023-04-24T00:10:55;1.38;;;0.50;;
24567;SDS011;12731;52.182;8.716;2023-04-24T00:13:21;1.25;;;0.80;;
24567;SDS011;12731;52.182;8.716;2023-04-24T00:15:47;1.42;;;0.70;;
24567;SDS011;12731;52.182;8.716;2023-04-24T00:18:14;1.40;;;0.75;;
24567;SDS011;12731;52.182;8.716;2023-04-24T00:20:40;0.98;;;0.52;;
24567;SDS011;12731;52.182;8.716;2023-04-24T00:23:07;0.40;;;0.40;;
24567;SDS011;12731;52.182;8.716;2023-04-24T00:25:33;1.35;;;0.60;;
24567;SDS011;12731;52.182;8.716;2023-04-24T00:28:00;0.40;;;0.40;;
24567;SDS011;12731;52.182;8.716;2023-04-24T00:30:26;3.33;;;0.60;;
24567;SDS011;12731;52.182;8.716;2023-04-24T00:32:53;1.23;;;0.50;;
24567;SDS011;12731;52.182;8.716;2023-04-24T00:35:19;1.23;;;0.40;;
24567;SDS011;12731;52.182;8.716;2023-04-24T00:37:46;2.05;;;0.40;;
24567;SDS011;12731;52.182;8.716;2023-04-24T00:40:12;0.50;;;0.30;;
24567;SDS011;12731;52.182;8.716;2023-04-24T00:42:39;2.17;;;0.60;;
24567;SDS011;12731;52.182;8.716;2023-04-24T00:45:06;0.93;;;0.50;;
24567;SDS011;12731;52.182;8.716;2023-04-24T00:47:33;1.52;;;0.55;;
24567;SDS011;12731;52.182;8.716;2023-04-24T00:50:03;0.57;;;0.50;;
24567;SDS011;12731;52.182;8.716;2023-04-24T00:52:30;0.50;;;0.40;;
24567;SDS011;12731;52.182;8.716;2023-04-24T00:55:00;0.40;;;0.40;;
24567;SDS011;12731;52.182;8.716;2023-04-24T00:57:26;0.70;;;0.35;;
24567;SDS011;12731;52.182;8.716;2023-04-24T00:59:53;0.95;;;0.50;;
24567;SDS011;12731;52.182;8.716;2023-04-24T01:02:19;0.50;;;0.50;;
24567;SDS011;12731;52.182;8.716;2023-04-24T01:04:48;1.58;;;0.85;;
24567;SDS011;12731;52.182;8.716;2023-04-24T01:07:15;2.25;;;0.80;;
24567;SDS011;12731;52.182;8.716;2023-04-24T01:09:43;0.88;;;0.73;;
24567;SDS011;12731;52.182;8.716;2023-04-24T01:12:13;1.55;;;0.80;;
24567;SDS011;12731;52.182;8.716;2023-04-24T01:14:40;2.40;;;0.90;;
24567;SDS011;12731;52.182;8.716;2023-04-24T01:17:07;1.83;;;0.90;;
24567;SDS011;12731;52.182;8.716;2023-04-24T01:19:35;1.35;;;0.88;;
24567;SDS011;12731;52.182;8.716;2023-04-24T01:22:01;1.20;;;0.60;;
24567;SDS011;12731;52.182;8.716;2023-04-24T01:24:28;0.75;;;0.70;;
24567;SDS011;12731;52.182;8.716;2023-04-24T01:26:55;1.00;;;0.80;;
24567;SDS011;12731;52.182;8.716;2023-04-24T01:29:23;1.00;;;0.90;;
24567;SDS011;12731;52.182;8.716;2023-04-24T01:31:49;2.25;;;0.70;;
24567;SDS011;12731;52.182;8.716;2023-04-24T01:34:16;1.00;;;0.80;;
24567;SDS011;12731;52.182;8.716;2023-04-24T01:36:43;1.63;;;0.80;;
24567;SDS011;12731;52.182;8.716;2023-04-24T01:39:12;0.77;;;0.77;;
24567;SDS011;12731;52.182;8.716;2023-04-24T01:41:38;1.10;;;0.90;;
24567;SDS011;12731;52.182;8.716;2023-04-24T01:44:05;1.27;;;1.00;;
24567;SDS011;12731;52.182;8.716;2023-04-24T01:46:31;1.27;;;0.90;;
24567;SDS011;12731;52.182;8.716;2023-04-24T01:49:01;0.90;;;0.77;;
24567;SDS011;12731;52.182;8.716;2023-04-24T01:51:27;1.15;;;0.80;;
24567;SDS011;12731;52.182;8.716;2023-04-24T01:53:54;2.75;;;0.93;;
24567;SDS011;12731;52.182;8.716;2023-04-24T01:56:21;1.92;;;0.80;;
24567;SDS011;12731;52.182;8.716;2023-04-24T01:58:48;2.25;;;1.05;;
24567;SDS011;12731;52.182;8.716;2023-04-24T02:01:19;1.10;;;1.00;;
24567;SDS011;12731;52.182;8.716;2023-04-24T02:03:46;0.93;;;0.90;;
24567;SDS011;12731;52.182;8.716;2023-04-24T02:06:13;0.95;;;0.90;;
24567;SDS011;12731;52.182;8.716;2023-04-24T02:08:39;1.20;;;1.00;;
24567;SDS011;12731;52.182;8.716;2023-04-24T02:11:06;2.05;;;1.00;;
24567;SDS011;12731;52.182;8.716;2023-04-24T02:13:32;1.20;;;1.08;;
24567;SDS011;12731;52.182;8.716;2023-04-24T02:15:59;2.05;;;1.08;;
24567;SDS011;12731;52.182;8.716;2023-04-24T02:18:25;1.45;;;1.02;;
24567;SDS011;12731;52.182;8.716;2023-04-24T02:20:52;2.25;;;0.95;;
24567;SDS011;12731;52.182;8.716;2023-04-24T02:23:18;1.83;;;0.90;;
24567;SDS011;12731;52.182;8.716;2023-04-24T02:25:44;3.42;;;1.02;;
24567;SDS011;12731;52.182;8.716;2023-04-24T02:28:11;2.22;;;1.23;;
24567;SDS011;12731;52.182;8.716;2023-04-24T02:30:38;1.48;;;1.10;;
24567;SDS011;12731;52.182;8.716;2023-04-24T02:33:04;2.20;;;1.08;;
24567;SDS011;12731;52.182;8.716;2023-04-24T02:35:31;1.30;;;1.20;;
24567;SDS011;12731;52.182;8.716;2023-04-24T02:37:57;4.10;;;1.20;;
24567;SDS011;12731;52.182;8.716;2023-04-24T02:40:24;2.22;;;1.50;;
24567;SDS011;12731;52.182;8.716;2023-04-24T02:42:52;1.45;;;1.30;;
24567;SDS011;12731;52.182;8.716;2023-04-24T02:45:19;2.38;;;1.30;;
24567;SDS011;12731;52.182;8.716;2023-04-24T02:47:45;1.58;;;1.48;;
24567;SDS011;12731;52.182;8.716;2023-04-24T02:50:11;2.13;;;1.50;;
24567;SDS011;12731;52.182;8.716;2023-04-24T02:52:38;2.55;;;1.52;;
24567;SDS011;12731;52.182;8.716;2023-04-24T02:55:04;3.60;;;1.60;;
24567;SDS011;12731;52.182;8.716;2023-04-24T02:57:31;2.28;;;1.73;;
24567;SDS011;12731;52.182;8.716;2023-04-24T02:59:57;2.22;;;1.70;;
24567;SDS011;12731;52.182;8.716;2023-04-24T03:02:24;2.10;;;1.75;;
24567;SDS011;12731;52.182;8.716;2023-04-24T03:04:50;2.67;;;1.60;;
24567;SDS011;12731;52.182;8.716;2023-04-24T03:07:17;2.95;;;1.50;;
24567;SDS011;12731;52.182;8.716;2023-04-24T03:09:46;1.60;;;1.40;;
24567;SDS011;12731;52.182;8.716;2023-04-24T03:12:13;1.77;;;1.40;;
24567;SDS011;12731;52.182;8.716;2023-04-24T03:14:40;2.28;;;1.30;;
24567;SDS011;12731;52.182;8.716;2023-04-24T03:17:06;1.33;;;1.23;;
24567;SDS011;12731;52.182;8.716;2023-04-24T03:19:33;2.13;;;1.70;;
24567;SDS011;12731;52.182;8.716;2023-04-24T03:21:59;1.65;;;1.38;;
24567;SDS011;12731;52.182;8.716;2023-04-24T03:24:28;3.97;;;1.58;;
24567;SDS011;12731;52.182;8.716;2023-04-24T03:26:54;1.85;;;1.52;;
24567;SDS011;12731;52.182;8.716;2023-04-24T03:29:22;2.33;;;1.63;;
24567;SDS011;12731;52.182;8.716;2023-04-24T03:31:49;2.38;;;1.63;;
24567;SDS011;12731;52.182;8.716;2023-04-24T03:34:15;1.48;;;1.38;;
24567;SDS011;12731;52.182;8.716;2023-04-24T03:36:42;1.55;;;1.10;;
24567;SDS011;12731;52.182;8.716;2023-04-24T03:39:08;1.48;;;1.20;;
24567;SDS011;12731;52.182;8.716;2023-04-24T03:41:35;1.30;;;1.20;;
24567;SDS011;12731;52.182;8.716;2023-04-24T03:44:01;1.70;;;1.40;;
24567;SDS011;12731;52.182;8.716;2023-04-24T03:46:27;1.65;;;1.40;;
24567;SDS011;12731;52.182;8.716;2023-04-24T03:48:54;1.90;;;1.40;;
24567;SDS011;12731;52.182;8.716;2023-04-24T03:51:20;1.40;;;1.30;;
24567;SDS011;12731;52.182;8.716;2023-04-24T03:53:48;1.42;;;1.33;;
24567;SDS011;12731;52.182;8.716;2023-04-24T03:56:15;1.70;;;1.40;;
24567;SDS011;12731;52.182;8.716;2023-04-24T03:58:41;2.00;;;1.58;;
24567;SDS011;12731;52.182;8.716;2023-04-24T04:01:07;1.92;;;1.50;;
24567;SDS011;12731;52.182;8.716;2023-04-24T04:03:34;3.33;;;1.70;;
24567;SDS011;12731;52.182;8.716;2023-04-24T04:06:01;1.75;;;1.60;;
24567;SDS011;12731;52.182;8.716;2023-04-24T04:08:27;2.42;;;1.65;;
24567;SDS011;12731;52.182;8.716;2023-04-24T04:10:54;2.33;;;1.80;;
24567;SDS011;12731;52.182;8.716;2023-04-24T04:13:21;2.72;;;1.95;;
24567;SDS011;12731;52.182;8.716;2023-04-24T04:15:47;2.53;;;1.55;;
24567;SDS011;12731;52.182;8.716;2023-04-24T04:18:14;1.70;;;1.50;;
24567;SDS011;12731;52.182;8.716;2023-04-24T04:20:41;1.70;;;1.60;;
24567;SDS011;12731;52.182;8.716;2023-04-24T04:23:07;3.55;;;1.77;;
24567;SDS011;12731;52.182;8.716;2023-04-24T04:25:34;2.22;;;1.75;;
24567;SDS011;12731;52.182;8.716;2023-04-24T04:28:00;2.50;;;2.05;;
24567;SDS011;12731;52.182;8.716;2023-04-24T04:30:28;2.28;;;2.03;;
24567;SDS011;12731;52.182;8.716;2023-04-24T04:32:58;2.72;;;2.00;;
24567;SDS011;12731;52.182;8.716;2023-04-24T04:35:25;4.30;;;2.03;;
24567;SDS011;12731;52.182;8.716;2023-04-24T04:37:52;2.95;;;2.30;;
24567;SDS011;12731;52.182;8.716;2023-04-24T04:40:18;3.50;;;2.45;;
24567;SDS011;12731;52.182;8.716;2023-04-24T04:42:45;2.85;;;2.30;;
24567;SDS011;12731;52.182;8.716;2023-04-24T04:45:13;3.67;;;2.30;;
24567;SDS011;12731;52.182;8.716;2023-04-24T04:47:42;3.55;;;2.00;;
24567;SDS011;12731;52.182;8.716;2023-04-24T04:50:09;2.58;;;2.22;;
24567;SDS011;12731;52.182;8.716;2023-04-24T04:52:36;2.40;;;2.20;;
24567;SDS011;12731;52.182;8.716;2023-04-24T04:55:03;3.92;;;2.25;;
24567;SDS011;12731;52.182;8.716;2023-04-24T04:57:29;3.83;;;2.33;;
24567;SDS011;12731;52.182;8.716;2023-04-24T04:59:56;2.88;;;2.40;;
24567;SDS011;12731;52.182;8.716;2023-04-24T05:02:22;2.80;;;2.40;;
24567;SDS011;12731;52.182;8.716;2023-04-24T05:04:49;2.85;;;2.20;;
24567;SDS011;12731;52.182;8.716;2023-04-24T05:07:16;3.55;;;2.60;;
24567;SDS011;12731;52.182;8.716;2023-04-24T05:09:43;5.45;;;2.80;;
24567;SDS011;12731;52.182;8.716;2023-04-24T05:12:10;4.07;;;3.30;;
24567;SDS011;12731;52.182;8.716;2023-04-24T05:14:37;3.90;;;2.95;;
24567;SDS011;12731;52.182;8.716;2023-04-24T05:17:06;5.18;;;3.15;;
24567;SDS011;12731;52.182;8.716;2023-04-24T05:19:32;4.53;;;3.65;;
24567;SDS011;12731;52.182;8.716;2023-04-24T05:22:02;4.75;;;3.83;;
24567;SDS011;12731;52.182;8.716;2023-04-24T05:24:30;5.63;;;4.28;;
24567;SDS011;12731;52.182;8.716;2023-04-24T05:26:56;6.38;;;4.40;;
24567;SDS011;12731;52.182;8.716;2023-04-24T05:29:24;10.07;;;7.00;;
24567;SDS011;12731;52.182;8.716;2023-04-24T05:31:52;10.93;;;8.20;;
24567;SDS011;12731;52.182;8.716;2023-04-24T05:34:18;11.90;;;8.38;;
24567;SDS011;12731;52.182;8.716;2023-04-24T05:36:45;9.55;;;8.23;;
24567;SDS011;12731;52.182;8.716;2023-04-24T05:39:11;10.23;;;8.70;;
24567;SDS011;12731;52.182;8.716;2023-04-24T05:41:37;11.52;;;8.77;;
24567;SDS011;12731;52.182;8.716;2023-04-24T05:44:04;12.80;;;9.40;;
24567;SDS011;12731;52.182;8.716;2023-04-24T05:46:30;11.05;;;9.35;;
24567;SDS011;12731;52.182;8.716;2023-04-24T05:48:57;13.02;;;9.75;;
24567;SDS011;12731;52.182;8.716;2023-04-24T05:51:24;10.45;;;9.02;;
24567;SDS011;12731;52.182;8.716;2023-04-24T05:53:50;11.02;;;9.90;;
24567;SDS011;12731;52.182;8.716;2023-04-24T05:56:17;12.82;;;9.70;;
24567;SDS011;12731;52.182;8.716;2023-04-24T05:58:45;13.88;;;9.73;;
24567;SDS011;12731;52.182;8.716;2023-04-24T06:01:12;11.90;;;9.95;;
24567;SDS011;12731;52.182;8.716;2023-04-24T06:03:40;12.43;;;10.60;;
24567;SDS011;12731;52.182;8.716;2023-04-24T06:06:07;12.75;;;10.13;;
24567;SDS011;12731;52.182;8.716;2023-04-24T06:08:34;16.27;;;10.48;;
24567;SDS011;12731;52.182;8.716;2023-04-24T06:11:01;14.52;;;10.35;;
24567;SDS011;12731;52.182;8.716;2023-04-24T06:13:29;12.93;;;11.30;;
24567;SDS011;12731;52.182;8.716;2023-04-24T06:15:56;13.55;;;10.50;;
24567;SDS011;12731;52.182;8.716;2023-04-24T06:18:22;14.40;;;10.98;;
24567;SDS011;12731;52.182;8.716;2023-04-24T06:20:49;14.98;;;11.00;;
24567;SDS011;12731;52.182;8.716;2023-04-24T06:23:15;16.80;;;10.73;;
24567;SDS011;12731;52.182;8.716;2023-04-24T06:25:42;15.07;;;10.85;;
24567;SDS011;12731;52.182;8.716;2023-04-24T06:28:08;17.77;;;11.30;;
24567;SDS011;12731;52.182;8.716;2023-04-24T06:30:35;13.05;;;10.82;;
24567;SDS011;12731;52.182;8.716;2023-04-24T06:33:01;15.10;;;11.50;;
24567;SDS011;12731;52.182;8.716;2023-04-24T06:35:44;14.65;;;12.20;;
24567;SDS011;12731;52.182;8.716;2023-04-24T06:38:10;16.02;;;12.02;;
24567;SDS011;12731;52.182;8.716;2023-04-24T06:40:37;16.20;;;12.70;;
24567;SDS011;12731;52.182;8.716;2023-04-24T06:43:06;14.13;;;11.50;;
24567;SDS011;12731;52.182;8.716;2023-04-24T06:45:33;15.75;;;11.90;;
24567;SDS011;12731;52.182;8.716;2023-04-24T06:47:59;13.15;;;11.50;;
24567;SDS011;12731;52.182;8.716;2023-04-24T06:50:26;15.30;;;12.45;;
24567;SDS011;12731;52.182;8.716;2023-04-24T06:52:52;15.40;;;11.95;;
24567;SDS011;12731;52.182;8.716;2023-04-24T06:55:19;15.40;;;12.20;;
24567;SDS011;12731;52.182;8.716;2023-04-24T06:57:45;18.17;;;12.48;;
24567;SDS011;12731;52.182;8.716;2023-04-24T07:00:13;17.52;;;12.88;;
24567;SDS011;12731;52.182;8.716;2023-04-24T07:02:39;17.65;;;13.15;;
24567;SDS011;12731;52.182;8.716;2023-04-24T07:05:06;16.13;;;12.63;;
24567;SDS011;12731;52.182;8.716;2023-04-24T07:07:34;17.17;;;13.57;;
24567;SDS011;12731;52.182;8.716;2023-04-24T07:10:04;14.95;;;13.18;;
24567;SDS011;12731;52.182;8.716;2023-04-24T07:12:31;19.27;;;13.85;;
24567;SDS011;12731;52.182;8.716;2023-04-24T07:14:59;16.05;;;13.25;;
24567;SDS011;12731;52.182;8.716;2023-04-24T07:17:26;14.65;;;13.05;;
24567;SDS011;12731;52.182;8.716;2023-04-24T07:19:53;16.13;;;13.43;;
24567;SDS011;12731;52.182;8.716;2023-04-24T07:22:19;16.98;;;12.77;;
24567;SDS011;12731;52.182;8.716;2023-04-24T07:24:46;18.70;;;14.00;;
24567;SDS011;12731;52.182;8.716;2023-04-24T07:27:12;17.48;;;13.98;;
24567;SDS011;12731;52.182;8.716;2023-04-24T07:29:41;16.90;;;13.30;;
24567;SDS011;12731;52.182;8.716;2023-04-24T07:32:08;17.80;;;13.50;;
24567;SDS011;12731;52.182;8.716;2023-04-24T07:34:35;15.38;;;13.60;;
24567;SDS011;12731;52.182;8.716;2023-04-24T07:37:01;19.02;;;14.00;;
24567;SDS011;12731;52.182;8.716;2023-04-24T07:39:28;18.85;;;15.32;;
24567;SDS011;12731;52.182;8.716;2023-04-24T07:41:55;17.13;;;14.00;;
24567;SDS011;12731;52.182;8.716;2023-04-24T07:44:25;16.13;;;14.05;;
24567;SDS011;12731;52.182;8.716;2023-04-24T07:46:52;17.75;;;13.25;;
24567;SDS011;12731;52.182;8.716;2023-04-24T07:49:18;15.38;;;12.50;;
24567;SDS011;12731;52.182;8.716;2023-04-24T07:51:45;15.43;;;13.10;;
24567;SDS011;12731;52.182;8.716;2023-04-24T07:54:12;16.77;;;12.70;;
24567;SDS011;12731;52.182;8.716;2023-04-24T07:56:38;12.43;;;11.05;;
24567;SDS011;12731;52.182;8.716;2023-04-24T07:59:05;12.85;;;11.40;;
24567;SDS011;12731;52.182;8.716;2023-04-24T08:01:32;12.90;;;11.40;;
24567;SDS011;12731;52.182;8.716;2023-04-24T08:03:58;13.48;;;10.05;;
24567;SDS011;12731;52.182;8.716;2023-04-24T08:06:26;12.02;;;9.60;;
24567;SDS011;12731;52.182;8.716;2023-04-24T08:08:56;10.82;;;9.20;;
24567;SDS011;12731;52.182;8.716;2023-04-24T08:11:22;11.65;;;9.15;;
24567;SDS011;12731;52.182;8.716;2023-04-24T08:13:50;11.30;;;9.15;;
24567;SDS011;12731;52.182;8.716;2023-04-24T08:16:16;10.30;;;9.15;;
24567;SDS011;12731;52.182;8.716;2023-04-24T08:18:43;11.05;;;8.98;;
24567;SDS011;12731;52.182;8.716;2023-04-24T08:21:09;10.05;;;8.35;;
24567;SDS011;12731;52.182;8.716;2023-04-24T08:23:39;9.07;;;7.00;;
24567;SDS011;12731;52.182;8.716;2023-04-24T08:26:06;7.97;;;7.18;;
24567;SDS011;12731;52.182;8.716;2023-04-24T08:28:33;8.38;;;6.65;;
24567;SDS011;12731;52.182;8.716;2023-04-24T08:30:59;7.65;;;6.00;;
24567;SDS011;12731;52.182;8.716;2023-04-24T08:33:26;7.15;;;5.75;;
24567;SDS011;12731;52.182;8.716;2023-04-24T08:35:52;6.47;;;5.88;;
24567;SDS011;12731;52.182;8.716;2023-04-24T08:38:19;7.70;;;5.85;;
24567;SDS011;12731;52.182;8.716;2023-04-24T08:40:47;8.60;;;5.82;;
24567;SDS011;12731;52.182;8.716;2023-04-24T08:43:15;8.23;;;6.00;;
24567;SDS011;12731;52.182;8.716;2023-04-24T08:45:42;7.22;;;6.07;;
24567;SDS011;12731;52.182;8.716;2023-04-24T08:48:09;6.72;;;5.38;;
24567;SDS011;12731;52.182;8.716;2023-04-24T08:50:52;7.68;;;5.78;;
24567;SDS011;12731;52.182;8.716;2023-04-24T08:53:19;7.35;;;5.68;;
24567;SDS011;12731;52.182;8.716;2023-04-24T08:55:46;6.47;;;5.72;;
24567;SDS011;12731;52.182;8.716;2023-04-24T08:58:14;6.20;;;4.50;;
24567;SDS011;12731;52.182;8.716;2023-04-24T09:00:42;6.07;;;4.82;;
24567;SDS011;12731;52.182;8.716;2023-04-24T09:03:16;6.57;;;4.82;;
24567;SDS011;12731;52.182;8.716;2023-04-24T09:05:44;4.45;;;3.75;;
24567;SDS011;12731;52.182;8.716;2023-04-24T09:08:13;5.03;;;4.25;;
24567;SDS011;12731;52.182;8.716;2023-04-24T09:10:40;4.40;;;4.00;;
24567;SDS011;12731;52.182;8.716;2023-04-24T09:13:07;5.13;;;3.70;;
24567;SDS011;12731;52.182;8.716;2023-04-24T09:15:35;3.60;;;3.30;;
24567;SDS011;12731;52.182;8.716;2023-04-24T09:18:04;3.80;;;3.50;;
24567;SDS011;12731;52.182;8.716;2023-04-24T09:20:31;3.58;;;3.28;;
24567;SDS011;12731;52.182;8.716;2023-04-24T09:22:58;3.10;;;2.80;;
24567;SDS011;12731;52.182;8.716;2023-04-24T09:25:30;3.00;;;2.72;;
24567;SDS011;12731;52.182;8.716;2023-04-24T09:28:00;3.30;;;3.00;;
24567;SDS011;12731;52.182;8.716;2023-04-24T09:30:27;4.25;;;2.95;;
24567;SDS011;12731;52.182;8.716;2023-04-24T09:33:10;3.30;;;3.00;;
24567;SDS011;12731;52.182;8.716;2023-04-24T09:35:50;3.40;;;3.10;;
24567;SDS011;12731;52.182;8.716;2023-04-24T09:38:17;3.53;;;3.22;;
24567;SDS011;12731;52.182;8.716;2023-04-24T09:40:43;3.33;;;2.80;;
24567;SDS011;12731;52.182;8.716;2023-04-24T09:43:10;3.33;;;2.70;;
24567;SDS011;12731;52.182;8.716;2023-04-24T09:45:38;2.75;;;2.33;;
24567;SDS011;12731;52.182;8.716;2023-04-24T09:48:05;3.40;;;2.47;;
24567;SDS011;12731;52.182;8.716;2023-04-24T09:50:37;2.88;;;2.55;;
24567;SDS011;12731;52.182;8.716;2023-04-24T09:53:04;2.90;;;2.60;;
24567;SDS011;12731;52.182;8.716;2023-04-24T09:55:32;4.03;;;2.40;;
24567;SDS011;12731;52.182;8.716;2023-04-24T09:57:59;2.55;;;2.33;;
24567;SDS011;12731;52.182;8.716;2023-04-24T10:00:27;3.45;;;2.60;;
24567;SDS011;12731;52.182;8.716;2023-04-24T10:02:55;2.58;;;2.38;;
24567;SDS011;12731;52.182;8.716;2023-04-24T10:05:29;2.75;;;2.35;;
24567;SDS011;12731;52.182;8.716;2023-04-24T10:08:03;5.05;;;2.50;;
24567;SDS011;12731;52.182;8.716;2023-04-24T10:10:34;2.28;;;2.10;;
24567;SDS011;12731;52.182;8.716;2023-04-24T10:13:04;2.30;;;2.10;;
24567;SDS011;12731;52.182;8.716;2023-04-24T10:15:31;2.75;;;2.00;;
24567;SDS011;12731;52.182;8.716;2023-04-24T10:17:58;2.28;;;2.08;;
24567;SDS011;12731;52.182;8.716;2023-04-24T10:20:26;1.88;;;1.65;;
24567;SDS011;12731;52.182;8.716;2023-04-24T10:22:55;2.10;;;1.90;;
24567;SDS011;12731;52.182;8.716;2023-04-24T10:25:23;2.08;;;1.90;;
24567;SDS011;12731;52.182;8.716;2023-04-24T10:27:51;2.05;;;1.85;;
24567;SDS011;12731;52.182;8.716;2023-04-24T10:30:19;1.73;;;1.63;;
24567;SDS011;12731;52.182;8.716;2023-04-24T10:32:49;1.65;;;1.48;;
24567;SDS011;12731;52.182;8.716;2023-04-24T10:35:15;2.45;;;1.60;;
24567;SDS011;12731;52.182;8.716;2023-04-24T10:37:48;2.13;;;1.70;;
24567;SDS011;12731;52.182;8.716;2023-04-24T10:40:18;1.70;;;1.60;;
24567;SDS011;12731;52.182;8.716;2023-04-24T10:42:49;2.00;;;1.77;;
24567;SDS011;12731;52.182;8.716;2023-04-24T10:45:21;2.38;;;1.70;;
24567;SDS011;12731;52.182;8.716;2023-04-24T10:47:58;2.38;;;1.40;;
24567;SDS011;12731;52.182;8.716;2023-04-24T10:50:47;1.90;;;1.80;;
24567;SDS011;12731;52.182;8.716;2023-04-24T10:53:17;2.25;;;2.05;;
24567;SDS011;12731;52.182;8.716;2023-04-24T10:55:46;2.65;;;2.35;;
24567;SDS011;12731;52.182;8.716;2023-04-24T10:58:13;2.50;;;2.30;;
24567;SDS011;12731;52.182;8.716;2023-04-24T11:00:41;2.90;;;2.58;;
24567;SDS011;12731;52.182;8.716;2023-04-24T11:03:22;2.47;;;2.38;;
24567;SDS011;12731;52.182;8.716;2023-04-24T11:05:52;3.28;;;2.55;;
24567;SDS011;12731;52.182;8.716;2023-04-24T11:10:56;3.08;;;2.88;;
24567;SDS011;12731;52.182;8.716;2023-04-24T11:16:29;3.67;;;3.38;;
24567;SDS011;12731;52.182;8.716;2023-04-24T11:27:06;5.00;;;4.47;;
24567;SDS011;12731;52.182;8.716;2023-04-24T11:32:15;4.88;;;4.35;;
24567;SDS011;12731;52.182;8.716;2023-04-24T11:35:00;4.55;;;4.15;;
24567;SDS011;12731;52.182;8.716;2023-04-24T11:37:35;4.32;;;4.03;;
24567;SDS011;12731;52.182;8.716;2023-04-24T11:40:04;4.63;;;4.22;;
24567;SDS011;12731;52.182;8.716;2023-04-24T11:42:35;4.15;;;3.85;;
24567;SDS011;12731;52.182;8.716;2023-04-24T11:45:06;4.50;;;4.10;;
24567;SDS011;12731;52.182;8.716;2023-04-24T11:47:40;4.38;;;3.97;;
24567;SDS011;12731;52.182;8.716;2023-04-24T11:50:13;4.35;;;3.75;;
24567;SDS011;12731;52.182;8.716;2023-04-24T11:52:42;4.10;;;3.80;;
24567;SDS011;12731;52.182;8.716;2023-04-24T11:57:42;5.13;;;3.92;;
24567;SDS011;12731;52.182;8.716;2023-04-24T12:00:17;4.45;;;3.40;;
24567;SDS011;12731;52.182;8.716;2023-04-24T12:02:45;4.50;;;3.20;;
24567;SDS011;12731;52.182;8.716;2023-04-24T12:05:19;2.65;;;2.45;;
24567;SDS011;12731;52.182;8.716;2023-04-24T12:07:47;3.17;;;2.90;;
24567;SDS011;12731;52.182;8.716;2023-04-24T12:10:14;2.55;;;2.35;;
24567;SDS011;12731;52.182;8.716;2023-04-24T12:12:40;2.63;;;2.42;;
24567;SDS011;12731;52.182;8.716;2023-04-24T12:15:07;2.40;;;1.60;;
24567;SDS011;12731;52.182;8.716;2023-04-24T12:17:34;1.88;;;1.75;;
24567;SDS011;12731;52.182;8.716;2023-04-24T12:20:03;1.67;;;1.40;;
24567;SDS011;12731;52.182;8.716;2023-04-24T12:22:50;1.83;;;1.50;;
24567;SDS011;12731;52.182;8.716;2023-04-24T12:25:22;1.30;;;1.20;;
24567;SDS011;12731;52.182;8.716;2023-04-24T12:27:54;2.08;;;1.20;;
24567;SDS011;12731;52.182;8.716;2023-04-24T12:30:30;1.38;;;1.13;;
24567;SDS011;12731;52.182;8.716;2023-04-24T12:32:58;1.60;;;1.10;;
24567;SDS011;12731;52.182;8.716;2023-04-24T12:35:26;1.55;;;1.15;;
24567;SDS011;12731;52.182;8.716;2023-04-24T12:37:54;3.00;;;1.50;;
24567;SDS011;12731;52.182;8.716;2023-04-24T12:40:21;3.08;;;1.40;;
24567;SDS011;12731;52.182;8.716;2023-04-24T12:42:49;2.30;;;1.60;;
24567;SDS011;12731;52.182;8.716;2023-04-24T12:45:19;2.15;;;1.55;;
24567;SDS011;12731;52.182;8.716;2023-04-24T12:47:46;3.38;;;1.80;;
24567;SDS011;12731;52.182;8.716;2023-04-24T12:50:13;2.60;;;1.90;;
24567;SDS011;12731;52.182;8.716;2023-04-24T12:52:41;3.30;;;2.20;;
24567;SDS011;12731;52.182;8.716;2023-04-24T12:55:08;3.10;;;2.50;;
24567;SDS011;12731;52.182;8.716;2023-04-24T12:57:36;3.20;;;2.33;;
24567;SDS011;12731;52.182;8.716;2023-04-24T13:00:04;3.13;;;2.83;;
24567;SDS011;12731;52.182;8.716;2023-04-24T13:02:32;3.50;;;2.92;;
24567;SDS011;12731;52.182;8.716;2023-04-24T13:05:00;3.65;;;3.35;;
24567;SDS011;12731;52.182;8.716;2023-04-24T13:07:27;7.05;;;3.97;;
24567;SDS011;12731;52.182;8.716;2023-04-24T13:09:54;6.45;;;4.32;;
24567;SDS011;12731;52.182;8.716;2023-04-24T13:12:21;7.13;;;4.80;;
24567;SDS011;12731;52.182;8.716;2023-04-24T13:14:50;7.13;;;4.47;;
24567;SDS011;12731;52.182;8.716;2023-04-24T13:17:16;7.30;;;4.70;;
24567;SDS011;12731;52.182;8.716;2023-04-24T13:19:43;6.68;;;5.07;;
24567;SDS011;12731;52.182;8.716;2023-04-24T13:22:11;6.15;;;4.53;;
24567;SDS011;12731;52.182;8.716;2023-04-24T13:24:39;5.38;;;3.92;;
24567;SDS011;12731;52.182;8.716;2023-04-24T13:27:08;7.75;;;4.18;;
24567;SDS011;12731;52.182;8.716;2023-04-24T13:29:35;7.20;;;4.15;;
24567;SDS011;12731;52.182;8.716;2023-04-24T13:32:02;7.10;;;3.67;;
24567;SDS011;12731;52.182;8.716;2023-04-24T13:34:29;7.20;;;3.90;;
24567;SDS011;12731;52.182;8.716;2023-04-24T13:36:56;7.07;;;3.60;;
24567;SDS011;12731;52.182;8.716;2023-04-24T13:39:24;6.45;;;3.70;;
24567;SDS011;12731;52.182;8.716;2023-04-24T13:41:52;7.50;;;3.58;;
24567;SDS011;12731;52.182;8.716;2023-04-24T13:44:19;6.65;;;3.33;;
24567;SDS011;12731;52.182;8.716;2023-04-24T13:46:47;9.02;;;3.85;;
24567;SDS011;12731;52.182;8.716;2023-04-24T13:49:14;6.90;;;3.72;;
24567;SDS011;12731;52.182;8.716;2023-04-24T13:51:41;7.15;;;3.78;;
24567;SDS011;12731;52.182;8.716;2023-04-24T13:54:08;8.18;;;4.20;;
24567;SDS011;12731;52.182;8.716;2023-04-24T13:56:35;7.65;;;4.13;;
24567;SDS011;12731;52.182;8.716;2023-04-24T13:59:02;7.85;;;3.95;;
24567;SDS011;12731;52.182;8.716;2023-04-24T14:01:28;10.48;;;4.40;;
24567;SDS011;12731;52.182;8.716;2023-04-24T14:03:55;7.47;;;4.45;;
24567;SDS011;12731;52.182;8.716;2023-04-24T14:06:22;8.00;;;4.25;;
24567;SDS011;12731;52.182;8.716;2023-04-24T14:08:49;9.30;;;4.47;;
24567;SDS011;12731;52.182;8.716;2023-04-24T14:11:16;7.75;;;4.75;;
24567;SDS011;12731;52.182;8.716;2023-04-24T14:13:43;7.55;;;4.68;;
24567;SDS011;12731;52.182;8.716;2023-04-24T14:16:11;10.55;;;5.38;;
24567;SDS011;12731;52.182;8.716;2023-04-24T14:18:38;7.43;;;4.82;;
24567;SDS011;12731;52.182;8.716;2023-04-24T14:21:04;11.30;;;5.35;;
24567;SDS011;12731;52.182;8.716;2023-04-24T14:23:33;10.85;;;4.90;;
24567;SDS011;12731;52.182;8.716;2023-04-24T14:26:00;8.18;;;5.30;;
24567;SDS011;12731;52.182;8.716;2023-04-24T14:28:26;12.00;;;5.53;;
24567;SDS011;12731;52.182;8.716;2023-04-24T14:30:52;8.88;;;5.40;;
24567;SDS011;12731;52.182;8.716;2023-04-24T14:33:19;10.80;;;5.93;;
24567;SDS011;12731;52.182;8.716;2023-04-24T14:35:46;12.98;;;6.07;;
24567;SDS011;12731;52.182;8.716;2023-04-24T14:38:12;12.43;;;5.93;;
24567;SDS011;12731;52.182;8.716;2023-04-24T14:40:39;10.43;;;5.35;;
24567;SDS011;12731;52.182;8.716;2023-04-24T14:43:09;11.60;;;5.35;;
24567;SDS011;12731;52.182;8.716;2023-04-24T14:45:36;10.60;;;5.68;;
24567;SDS011;12731;52.182;8.716;2023-04-24T14:48:03;10.30;;;6.10;;
24567;SDS011;12731;52.182;8.716;2023-04-24T14:50:29;13.05;;;6.43;;
24567;SDS011;12731;52.182;8.716;2023-04-24T14:52:56;11.65;;;6.40;;
24567;SDS011;12731;52.182;8.716;2023-04-24T14:55:25;12.30;;;6.38;;
24567;SDS011;12731;52.182;8.716;2023-04-24T14:57:52;12.05;;;7.18;;
24567;SDS011;12731;52.182;8.716;2023-04-24T15:00:19;11.70;;;6.55;;
24567;SDS011;12731;52.182;8.716;2023-04-24T15:02:46;13.02;;;5.97;;
24567;SDS011;12731;52.182;8.716;2023-04-24T15:05:13;10.98;;;6.15;;